sensor_id;sensor_type;location;lat;lon;timestamp;temperature;humidity
64888;DHT22;51386;53.082;8.816;2022-08-19T00:01:48;22.50;72.20
64888;DHT22;51386;53.082;8.816;2022-08-19T00:04:21;22.50;72.40
64888;DHT22;51386;53.082;8.816;2022-08-19T00:06:51;22.50;72.60
64888;DHT22;51386;53.082;8.816;2022-08-19T00:09:21;22.50;72.90
64888;DHT22;51386;53.082;8.816;2022-08-19T00:11:50;22.50;73.10
64888;DHT22;51386;53.082;8.816;2022-08-19T00:14:19;22.50;73.10
64888;DHT22;51386;53.082;8.816;2022-08-19T00:16:49;22.50;73.10
64888;DHT22;51386;53.082;8.816;2022-08-19T00:19:18;22.60;73.10
64888;DHT22;51386;53.082;8.816;2022-08-19T00:21:45;22.60;72.90
64888;DHT22;51386;53.082;8.816;2022-08-19T00:24:14;22.60;72.70
64888;DHT22;51386;53.082;8.816;2022-08-19T00:26:43;22.60;72.60
64888;DHT22;51386;53.082;8.816;2022-08-19T00:29:15;22.60;72.60
64888;DHT22;51386;53.082;8.816;2022-08-19T00:31:45;22.60;72.60
64888;DHT22;51386;53.082;8.816;2022-08-19T00:34:15;22.60;72.50
64888;DHT22;51386;53.082;8.816;2022-08-19T00:36:43;22.50;72.40
64888;DHT22;51386;53.082;8.816;2022-08-19T00:39:11;22.50;72.40
64888;DHT22;51386;53.082;8.816;2022-08-19T00:41:40;22.40;71.90
64888;DHT22;51386;53.082;8.816;2022-08-19T00:44:09;22.40;71.70
64888;DHT22;51386;53.082;8.816;2022-08-19T00:46:42;22.40;72.20
64888;DHT22;51386;53.082;8.816;2022-08-19T00:49:25;22.40;73.10
64888;DHT22;51386;53.082;8.816;2022-08-19T00:52:04;22.40;72.40
64888;DHT22;51386;53.082;8.816;2022-08-19T00:54:36;22.40;72.40
64888;DHT22;51386;53.082;8.816;2022-08-19T00:57:09;22.30;72.60
64888;DHT22;51386;53.082;8.816;2022-08-19T00:59:44;22.40;72.70
64888;DHT22;51386;53.082;8.816;2022-08-19T01:02:29;22.40;72.80
64888;DHT22;51386;53.082;8.816;2022-08-19T01:04:59;22.50;72.90
64888;DHT22;51386;53.082;8.816;2022-08-19T01:07:28;22.50;72.50
64888;DHT22;51386;53.082;8.816;2022-08-19T01:10:06;22.60;72.50
64888;DHT22;51386;53.082;8.816;2022-08-19T01:12:37;22.60;72.60
64888;DHT22;51386;53.082;8.816;2022-08-19T01:15:06;22.50;72.50
64888;DHT22;51386;53.082;8.816;2022-08-19T01:17:38;22.50;72.70
64888;DHT22;51386;53.082;8.816;2022-08-19T01:20:10;22.50;72.80
64888;DHT22;51386;53.082;8.816;2022-08-19T01:22:44;22.50;72.70
64888;DHT22;51386;53.082;8.816;2022-08-19T01:25:14;22.50;72.70
64888;DHT22;51386;53.082;8.816;2022-08-19T01:27:45;22.50;72.60
64888;DHT22;51386;53.082;8.816;2022-08-19T01:30:23;22.40;72.10
64888;DHT22;51386;53.082;8.816;2022-08-19T01:32:54;22.40;71.90
64888;DHT22;51386;53.082;8.816;2022-08-19T01:35:23;22.30;72.10
64888;DHT22;51386;53.082;8.816;2022-08-19T01:37:55;22.30;72.40
64888;DHT22;51386;53.082;8.816;2022-08-19T01:40:27;22.30;72.60
64888;DHT22;51386;53.082;8.816;2022-08-19T01:42:58;22.30;72.90
64888;DHT22;51386;53.082;8.816;2022-08-19T01:45:28;22.20;72.60
64888;DHT22;51386;53.082;8.816;2022-08-19T01:47:57;22.20;72.80
64888;DHT22;51386;53.082;8.816;2022-08-19T01:50:29;22.20;72.90
64888;DHT22;51386;53.082;8.816;2022-08-19T01:52:59;22.20;72.90
64888;DHT22;51386;53.082;8.816;2022-08-19T01:55:32;22.20;73.10
64888;DHT22;51386;53.082;8.816;2022-08-19T01:58:10;22.20;73.20
64888;DHT22;51386;53.082;8.816;2022-08-19T02:00:40;22.10;73.10
64888;DHT22;51386;53.082;8.816;2022-08-19T02:03:09;22.20;73.20
64888;DHT22;51386;53.082;8.816;2022-08-19T02:05:38;22.20;73.30
64888;DHT22;51386;53.082;8.816;2022-08-19T02:08:07;22.20;72.80
64888;DHT22;51386;53.082;8.816;2022-08-19T02:10:39;22.20;72.80
64888;DHT22;51386;53.082;8.816;2022-08-19T02:13:08;22.20;73.00
64888;DHT22;51386;53.082;8.816;2022-08-19T02:15:37;22.30;73.20
64888;DHT22;51386;53.082;8.816;2022-08-19T02:18:04;22.20;73.30
64888;DHT22;51386;53.082;8.816;2022-08-19T02:20:33;22.20;73.40
64888;DHT22;51386;53.082;8.816;2022-08-19T02:23:00;22.10;73.40
64888;DHT22;51386;53.082;8.816;2022-08-19T02:25:29;22.10;73.40
64888;DHT22;51386;53.082;8.816;2022-08-19T02:27:57;22.10;73.50
64888;DHT22;51386;53.082;8.816;2022-08-19T02:30:24;22.10;73.70
64888;DHT22;51386;53.082;8.816;2022-08-19T02:32:52;22.00;74.60
64888;DHT22;51386;53.082;8.816;2022-08-19T02:35:20;22.00;74.10
64888;DHT22;51386;53.082;8.816;2022-08-19T02:37:48;22.00;74.00
64888;DHT22;51386;53.082;8.816;2022-08-19T02:40:35;22.10;74.00
64888;DHT22;51386;53.082;8.816;2022-08-19T02:43:04;22.10;73.50
64888;DHT22;51386;53.082;8.816;2022-08-19T02:45:35;22.10;73.30
64888;DHT22;51386;53.082;8.816;2022-08-19T02:48:07;22.10;73.30
64888;DHT22;51386;53.082;8.816;2022-08-19T02:50:48;22.00;73.40
64888;DHT22;51386;53.082;8.816;2022-08-19T02:53:23;22.00;73.70
64888;DHT22;51386;53.082;8.816;2022-08-19T02:55:54;22.00;73.60
64888;DHT22;51386;53.082;8.816;2022-08-19T02:58:22;22.10;73.80
64888;DHT22;51386;53.082;8.816;2022-08-19T03:00:53;22.00;73.70
64888;DHT22;51386;53.082;8.816;2022-08-19T03:03:22;22.00;73.70
64888;DHT22;51386;53.082;8.816;2022-08-19T03:05:50;22.00;73.70
64888;DHT22;51386;53.082;8.816;2022-08-19T03:08:24;22.00;73.70
64888;DHT22;51386;53.082;8.816;2022-08-19T03:10:54;22.00;73.90
64888;DHT22;51386;53.082;8.816;2022-08-19T03:13:22;22.10;73.80
64888;DHT22;51386;53.082;8.816;2022-08-19T03:15:50;22.10;73.70
64888;DHT22;51386;53.082;8.816;2022-08-19T03:18:17;22.20;73.70
64888;DHT22;51386;53.082;8.816;2022-08-19T03:20:47;22.20;73.40
64888;DHT22;51386;53.082;8.816;2022-08-19T03:23:16;22.20;73.00
64888;DHT22;51386;53.082;8.816;2022-08-19T03:25:46;22.20;72.60
64888;DHT22;51386;53.082;8.816;2022-08-19T03:28:36;22.30;72.60
64888;DHT22;51386;53.082;8.816;2022-08-19T03:31:08;22.30;72.60
64888;DHT22;51386;53.082;8.816;2022-08-19T03:33:58;22.40;72.40
64888;DHT22;51386;53.082;8.816;2022-08-19T03:36:26;22.40;71.80
64888;DHT22;51386;53.082;8.816;2022-08-19T03:38:57;22.50;71.30
64888;DHT22;51386;53.082;8.816;2022-08-19T03:41:28;22.50;70.90
64888;DHT22;51386;53.082;8.816;2022-08-19T03:44:12;22.40;70.60
64888;DHT22;51386;53.082;8.816;2022-08-19T03:46:45;22.40;70.70
64888;DHT22;51386;53.082;8.816;2022-08-19T03:49:13;22.40;71.90
64888;DHT22;51386;53.082;8.816;2022-08-19T03:51:44;22.40;71.60
64888;DHT22;51386;53.082;8.816;2022-08-19T03:54:14;22.40;71.30
64888;DHT22;51386;53.082;8.816;2022-08-19T03:56:43;22.40;70.80
64888;DHT22;51386;53.082;8.816;2022-08-19T03:59:16;22.40;70.80
64888;DHT22;51386;53.082;8.816;2022-08-19T04:01:45;22.40;70.90
64888;DHT22;51386;53.082;8.816;2022-08-19T04:04:12;22.30;70.90
64888;DHT22;51386;53.082;8.816;2022-08-19T04:06:40;22.40;71.10
64888;DHT22;51386;53.082;8.816;2022-08-19T04:09:10;22.40;71.10
64888;DHT22;51386;53.082;8.816;2022-08-19T04:11:39;22.40;70.80
64888;DHT22;51386;53.082;8.816;2022-08-19T04:14:14;22.50;70.80
64888;DHT22;51386;53.082;8.816;2022-08-19T04:16:43;22.50;70.50
64888;DHT22;51386;53.082;8.816;2022-08-19T04:19:13;22.40;70.50
64888;DHT22;51386;53.082;8.816;2022-08-19T04:21:43;22.50;70.50
64888;DHT22;51386;53.082;8.816;2022-08-19T04:24:12;22.40;70.20
64888;DHT22;51386;53.082;8.816;2022-08-19T04:26:40;22.40;71.00
64888;DHT22;51386;53.082;8.816;2022-08-19T04:29:10;22.30;70.50
64888;DHT22;51386;53.082;8.816;2022-08-19T04:31:42;22.20;70.50
64888;DHT22;51386;53.082;8.816;2022-08-19T04:34:14;22.10;70.60
64888;DHT22;51386;53.082;8.816;2022-08-19T04:36:45;22.10;71.00
64888;DHT22;51386;53.082;8.816;2022-08-19T04:39:14;22.00;71.00
64888;DHT22;51386;53.082;8.816;2022-08-19T04:41:43;21.90;71.40
64888;DHT22;51386;53.082;8.816;2022-08-19T04:44:30;21.90;71.80
64888;DHT22;51386;53.082;8.816;2022-08-19T04:47:01;21.80;71.80
64888;DHT22;51386;53.082;8.816;2022-08-19T04:49:37;21.80;71.90
64888;DHT22;51386;53.082;8.816;2022-08-19T04:52:05;21.70;71.90
64888;DHT22;51386;53.082;8.816;2022-08-19T04:54:32;21.70;72.20
64888;DHT22;51386;53.082;8.816;2022-08-19T04:57:06;21.60;72.30
64888;DHT22;51386;53.082;8.816;2022-08-19T04:59:37;21.50;72.60
64888;DHT22;51386;53.082;8.816;2022-08-19T05:02:08;21.50;73.20
64888;DHT22;51386;53.082;8.816;2022-08-19T05:04:36;21.40;73.10
64888;DHT22;51386;53.082;8.816;2022-08-19T05:07:07;21.40;73.10
64888;DHT22;51386;53.082;8.816;2022-08-19T05:09:35;21.40;73.40
64888;DHT22;51386;53.082;8.816;2022-08-19T05:12:22;21.30;73.50
64888;DHT22;51386;53.082;8.816;2022-08-19T05:14:56;21.30;73.50
64888;DHT22;51386;53.082;8.816;2022-08-19T05:17:26;21.30;73.70
64888;DHT22;51386;53.082;8.816;2022-08-19T05:19:59;21.30;73.60
64888;DHT22;51386;53.082;8.816;2022-08-19T05:22:46;21.30;74.30
64888;DHT22;51386;53.082;8.816;2022-08-19T05:25:17;21.30;73.90
64888;DHT22;51386;53.082;8.816;2022-08-19T05:27:47;21.30;73.80
64888;DHT22;51386;53.082;8.816;2022-08-19T05:30:15;21.30;73.60
64888;DHT22;51386;53.082;8.816;2022-08-19T05:32:47;21.30;73.60
64888;DHT22;51386;53.082;8.816;2022-08-19T05:35:14;21.30;73.70
64888;DHT22;51386;53.082;8.816;2022-08-19T05:37:42;21.30;73.80
64888;DHT22;51386;53.082;8.816;2022-08-19T05:40:10;21.30;74.00
64888;DHT22;51386;53.082;8.816;2022-08-19T05:42:38;21.40;74.20
64888;DHT22;51386;53.082;8.816;2022-08-19T05:45:06;21.50;73.80
64888;DHT22;51386;53.082;8.816;2022-08-19T05:47:34;21.50;72.90
64888;DHT22;51386;53.082;8.816;2022-08-19T05:50:09;21.50;72.70
64888;DHT22;51386;53.082;8.816;2022-08-19T05:52:37;21.50;72.50
64888;DHT22;51386;53.082;8.816;2022-08-19T05:55:16;21.60;72.50
64888;DHT22;51386;53.082;8.816;2022-08-19T05:57:44;21.50;72.30
64888;DHT22;51386;53.082;8.816;2022-08-19T06:00:12;21.50;72.60
64888;DHT22;51386;53.082;8.816;2022-08-19T06:02:40;21.40;72.70
64888;DHT22;51386;53.082;8.816;2022-08-19T06:05:10;21.40;73.00
64888;DHT22;51386;53.082;8.816;2022-08-19T06:07:39;21.40;72.80
64888;DHT22;51386;53.082;8.816;2022-08-19T06:10:08;21.50;73.20
64888;DHT22;51386;53.082;8.816;2022-08-19T06:12:38;21.50;73.30
64888;DHT22;51386;53.082;8.816;2022-08-19T06:15:08;21.70;73.10
64888;DHT22;51386;53.082;8.816;2022-08-19T06:17:37;21.80;72.80
64888;DHT22;51386;53.082;8.816;2022-08-19T06:20:07;21.90;72.20
64888;DHT22;51386;53.082;8.816;2022-08-19T06:22:39;21.90;71.70
64888;DHT22;51386;53.082;8.816;2022-08-19T06:25:09;22.00;71.40
64888;DHT22;51386;53.082;8.816;2022-08-19T06:27:38;22.00;71.20
64888;DHT22;51386;53.082;8.816;2022-08-19T06:30:26;22.00;71.00
64888;DHT22;51386;53.082;8.816;2022-08-19T06:32:54;22.00;70.90
64888;DHT22;51386;53.082;8.816;2022-08-19T06:35:22;22.00;71.20
64888;DHT22;51386;53.082;8.816;2022-08-19T06:37:50;22.00;71.70
64888;DHT22;51386;53.082;8.816;2022-08-19T06:40:17;22.00;70.90
64888;DHT22;51386;53.082;8.816;2022-08-19T06:42:45;22.00;71.00
64888;DHT22;51386;53.082;8.816;2022-08-19T06:45:21;22.00;71.10
64888;DHT22;51386;53.082;8.816;2022-08-19T06:47:51;22.10;71.10
64888;DHT22;51386;53.082;8.816;2022-08-19T06:50:24;22.10;71.10
64888;DHT22;51386;53.082;8.816;2022-08-19T06:52:52;22.20;70.80
64888;DHT22;51386;53.082;8.816;2022-08-19T06:55:19;22.20;70.20
64888;DHT22;51386;53.082;8.816;2022-08-19T06:57:47;22.30;69.60
64888;DHT22;51386;53.082;8.816;2022-08-19T07:00:17;22.30;69.20
64888;DHT22;51386;53.082;8.816;2022-08-19T07:02:45;22.40;69.20
64888;DHT22;51386;53.082;8.816;2022-08-19T07:05:24;22.40;69.20
64888;DHT22;51386;53.082;8.816;2022-08-19T07:07:52;22.50;69.20
64888;DHT22;51386;53.082;8.816;2022-08-19T07:10:23;22.60;69.10
64888;DHT22;51386;53.082;8.816;2022-08-19T07:12:51;22.50;67.70
64888;DHT22;51386;53.082;8.816;2022-08-19T07:15:19;22.60;67.90
64888;DHT22;51386;53.082;8.816;2022-08-19T07:17:48;22.60;67.90
64888;DHT22;51386;53.082;8.816;2022-08-19T07:20:18;22.60;67.90
64888;DHT22;51386;53.082;8.816;2022-08-19T07:22:48;22.70;68.00
64888;DHT22;51386;53.082;8.816;2022-08-19T07:25:16;22.70;67.80
64888;DHT22;51386;53.082;8.816;2022-08-19T07:27:44;22.80;67.70
64888;DHT22;51386;53.082;8.816;2022-08-19T07:30:20;22.80;67.20
64888;DHT22;51386;53.082;8.816;2022-08-19T07:32:52;22.90;67.20
64888;DHT22;51386;53.082;8.816;2022-08-19T07:35:19;23.00;66.90
64888;DHT22;51386;53.082;8.816;2022-08-19T07:37:48;23.10;66.80
64888;DHT22;51386;53.082;8.816;2022-08-19T07:40:16;23.20;66.00
64888;DHT22;51386;53.082;8.816;2022-08-19T07:42:43;23.30;66.00
64888;DHT22;51386;53.082;8.816;2022-08-19T07:45:11;23.50;66.20
64888;DHT22;51386;53.082;8.816;2022-08-19T07:47:38;23.90;64.00
64888;DHT22;51386;53.082;8.816;2022-08-19T07:50:19;24.20;62.40
64888;DHT22;51386;53.082;8.816;2022-08-19T07:52:49;24.60;61.40
64888;DHT22;51386;53.082;8.816;2022-08-19T07:55:23;24.90;60.10
64888;DHT22;51386;53.082;8.816;2022-08-19T07:58:10;25.40;58.60
64888;DHT22;51386;53.082;8.816;2022-08-19T08:00:39;25.90;57.70
64888;DHT22;51386;53.082;8.816;2022-08-19T08:03:07;26.30;56.70
64888;DHT22;51386;53.082;8.816;2022-08-19T08:05:35;26.80;55.50
64888;DHT22;51386;53.082;8.816;2022-08-19T08:08:22;27.30;54.20
64888;DHT22;51386;53.082;8.816;2022-08-19T08:11:18;27.70;52.50
64888;DHT22;51386;53.082;8.816;2022-08-19T08:13:49;28.30;51.70
64888;DHT22;51386;53.082;8.816;2022-08-19T08:16:30;28.90;49.50
64888;DHT22;51386;53.082;8.816;2022-08-19T08:19:00;29.50;47.40
64888;DHT22;51386;53.082;8.816;2022-08-19T08:21:28;29.90;46.30
64888;DHT22;51386;53.082;8.816;2022-08-19T08:23:57;29.90;45.20
64888;DHT22;51386;53.082;8.816;2022-08-19T08:26:29;29.90;44.50
64888;DHT22;51386;53.082;8.816;2022-08-19T08:29:00;29.80;44.80
64888;DHT22;51386;53.082;8.816;2022-08-19T08:31:39;29.70;44.10
64888;DHT22;51386;53.082;8.816;2022-08-19T08:34:08;29.60;44.70
64888;DHT22;51386;53.082;8.816;2022-08-19T08:36:37;29.50;45.00
64888;DHT22;51386;53.082;8.816;2022-08-19T08:39:10;29.50;44.20
64888;DHT22;51386;53.082;8.816;2022-08-19T08:41:45;29.40;43.80
64888;DHT22;51386;53.082;8.816;2022-08-19T08:44:21;29.40;44.50
64888;DHT22;51386;53.082;8.816;2022-08-19T08:46:55;29.30;44.90
64888;DHT22;51386;53.082;8.816;2022-08-19T08:49:31;29.30;44.60
64888;DHT22;51386;53.082;8.816;2022-08-19T08:52:09;29.40;44.90
64888;DHT22;51386;53.082;8.816;2022-08-19T08:54:44;29.60;44.90
64888;DHT22;51386;53.082;8.816;2022-08-19T08:57:26;29.90;44.80
64888;DHT22;51386;53.082;8.816;2022-08-19T09:00:09;30.20;43.90
64888;DHT22;51386;53.082;8.816;2022-08-19T09:02:42;30.80;43.30
64888;DHT22;51386;53.082;8.816;2022-08-19T09:05:10;31.40;42.20
64888;DHT22;51386;53.082;8.816;2022-08-19T09:07:49;31.90;41.30
64888;DHT22;51386;53.082;8.816;2022-08-19T09:10:31;32.50;40.10
64888;DHT22;51386;53.082;8.816;2022-08-19T09:13:16;33.00;38.10
64888;DHT22;51386;53.082;8.816;2022-08-19T09:16:06;33.60;36.60
64888;DHT22;51386;53.082;8.816;2022-08-19T09:18:41;34.10;35.70
64888;DHT22;51386;53.082;8.816;2022-08-19T09:21:10;34.50;34.20
64888;DHT22;51386;53.082;8.816;2022-08-19T09:23:38;34.80;33.70
64888;DHT22;51386;53.082;8.816;2022-08-19T09:26:12;35.00;33.10
64888;DHT22;51386;53.082;8.816;2022-08-19T09:28:43;35.20;32.30
64888;DHT22;51386;53.082;8.816;2022-08-19T09:31:21;35.20;32.60
64888;DHT22;51386;53.082;8.816;2022-08-19T09:33:51;35.10;31.70
64888;DHT22;51386;53.082;8.816;2022-08-19T09:36:25;34.90;32.10
64888;DHT22;51386;53.082;8.816;2022-08-19T09:39:01;34.70;32.10
64888;DHT22;51386;53.082;8.816;2022-08-19T09:41:43;34.50;32.70
64888;DHT22;51386;53.082;8.816;2022-08-19T09:44:13;34.40;32.60
64888;DHT22;51386;53.082;8.816;2022-08-19T09:46:40;34.40;32.70
64888;DHT22;51386;53.082;8.816;2022-08-19T09:49:08;34.30;32.60
64888;DHT22;51386;53.082;8.816;2022-08-19T09:51:36;34.40;32.10
64888;DHT22;51386;53.082;8.816;2022-08-19T09:54:05;34.50;32.10
64888;DHT22;51386;53.082;8.816;2022-08-19T09:56:37;34.80;31.50
64888;DHT22;51386;53.082;8.816;2022-08-19T09:59:10;35.10;30.80
64888;DHT22;51386;53.082;8.816;2022-08-19T10:01:38;35.50;29.60
64888;DHT22;51386;53.082;8.816;2022-08-19T10:04:06;35.90;30.00
64888;DHT22;51386;53.082;8.816;2022-08-19T10:06:49;36.40;29.70
64888;DHT22;51386;53.082;8.816;2022-08-19T10:09:21;36.90;29.20
64888;DHT22;51386;53.082;8.816;2022-08-19T10:12:01;37.30;27.60
64888;DHT22;51386;53.082;8.816;2022-08-19T10:14:31;37.70;27.80
64888;DHT22;51386;53.082;8.816;2022-08-19T10:17:01;38.10;26.80
64888;DHT22;51386;53.082;8.816;2022-08-19T10:19:47;38.40;26.30
64888;DHT22;51386;53.082;8.816;2022-08-19T10:22:22;38.60;25.80
64888;DHT22;51386;53.082;8.816;2022-08-19T10:24:51;38.80;26.10
64888;DHT22;51386;53.082;8.816;2022-08-19T10:27:19;38.90;26.10
64888;DHT22;51386;53.082;8.816;2022-08-19T10:29:48;39.00;25.20
64888;DHT22;51386;53.082;8.816;2022-08-19T10:32:15;39.10;25.50
64888;DHT22;51386;53.082;8.816;2022-08-19T10:34:43;39.30;25.70
64888;DHT22;51386;53.082;8.816;2022-08-19T10:37:15;39.40;25.00
64888;DHT22;51386;53.082;8.816;2022-08-19T10:39:54;39.50;25.00
64888;DHT22;51386;53.082;8.816;2022-08-19T10:42:22;39.20;23.80
64888;DHT22;51386;53.082;8.816;2022-08-19T10:44:51;38.90;23.90
64888;DHT22;51386;53.082;8.816;2022-08-19T10:47:18;38.40;24.10
64888;DHT22;51386;53.082;8.816;2022-08-19T10:49:57;37.80;24.50
64888;DHT22;51386;53.082;8.816;2022-08-19T10:53:03;36.90;25.30
64888;DHT22;51386;53.082;8.816;2022-08-19T10:55:35;36.00;26.20
64888;DHT22;51386;53.082;8.816;2022-08-19T10:58:22;35.30;27.10
64888;DHT22;51386;53.082;8.816;2022-08-19T11:00:56;34.60;28.00
64888;DHT22;51386;53.082;8.816;2022-08-19T11:03:26;33.90;28.50
64888;DHT22;51386;53.082;8.816;2022-08-19T11:05:58;33.40;29.30
64888;DHT22;51386;53.082;8.816;2022-08-19T11:08:27;33.00;29.70
64888;DHT22;51386;53.082;8.816;2022-08-19T11:10:55;32.50;30.00
64888;DHT22;51386;53.082;8.816;2022-08-19T11:13:28;32.10;30.20
64888;DHT22;51386;53.082;8.816;2022-08-19T11:15:59;31.90;30.70
64888;DHT22;51386;53.082;8.816;2022-08-19T11:18:37;31.90;30.60
64888;DHT22;51386;53.082;8.816;2022-08-19T11:21:07;31.90;30.40
64888;DHT22;51386;53.082;8.816;2022-08-19T11:23:36;32.00;30.30
64888;DHT22;51386;53.082;8.816;2022-08-19T11:26:04;32.10;30.20
64888;DHT22;51386;53.082;8.816;2022-08-19T11:28:32;32.20;30.00
64888;DHT22;51386;53.082;8.816;2022-08-19T11:31:01;32.30;29.60
64888;DHT22;51386;53.082;8.816;2022-08-19T11:33:30;32.10;29.50
64888;DHT22;51386;53.082;8.816;2022-08-19T11:35:59;32.10;29.60
64888;DHT22;51386;53.082;8.816;2022-08-19T11:38:27;31.90;29.40
64888;DHT22;51386;53.082;8.816;2022-08-19T11:40:56;31.80;29.60
64888;DHT22;51386;53.082;8.816;2022-08-19T11:43:24;31.60;29.70
64888;DHT22;51386;53.082;8.816;2022-08-19T11:45:53;31.50;30.00
64888;DHT22;51386;53.082;8.816;2022-08-19T11:48:23;31.40;30.10
64888;DHT22;51386;53.082;8.816;2022-08-19T11:50:52;31.20;30.70
64888;DHT22;51386;53.082;8.816;2022-08-19T11:53:24;31.20;31.10
64888;DHT22;51386;53.082;8.816;2022-08-19T11:55:53;31.10;31.50
64888;DHT22;51386;53.082;8.816;2022-08-19T11:58:22;31.00;31.40
64888;DHT22;51386;53.082;8.816;2022-08-19T12:00:52;31.00;31.70
64888;DHT22;51386;53.082;8.816;2022-08-19T12:03:20;31.00;32.00
64888;DHT22;51386;53.082;8.816;2022-08-19T12:05:52;31.00;32.50
64888;DHT22;51386;53.082;8.816;2022-08-19T12:08:20;30.90;31.30
64888;DHT22;51386;53.082;8.816;2022-08-19T12:10:47;30.80;31.20
64888;DHT22;51386;53.082;8.816;2022-08-19T12:13:15;30.70;30.80
64888;DHT22;51386;53.082;8.816;2022-08-19T12:15:46;30.60;30.40
64888;DHT22;51386;53.082;8.816;2022-08-19T12:18:14;30.60;30.40
64888;DHT22;51386;53.082;8.816;2022-08-19T12:20:43;30.60;30.90
64888;DHT22;51386;53.082;8.816;2022-08-19T12:23:12;30.50;30.80
64888;DHT22;51386;53.082;8.816;2022-08-19T12:25:45;30.50;30.80
64888;DHT22;51386;53.082;8.816;2022-08-19T12:28:17;30.50;30.90
64888;DHT22;51386;53.082;8.816;2022-08-19T12:30:46;30.40;31.20
64888;DHT22;51386;53.082;8.816;2022-08-19T12:33:14;30.40;31.60
64888;DHT22;51386;53.082;8.816;2022-08-19T12:35:44;30.40;31.90
64888;DHT22;51386;53.082;8.816;2022-08-19T12:38:14;30.40;32.30
64888;DHT22;51386;53.082;8.816;2022-08-19T12:40:45;30.30;32.30
64888;DHT22;51386;53.082;8.816;2022-08-19T12:43:14;30.30;32.50
64888;DHT22;51386;53.082;8.816;2022-08-19T12:45:42;30.30;32.70
64888;DHT22;51386;53.082;8.816;2022-08-19T12:48:13;30.30;32.90
64888;DHT22;51386;53.082;8.816;2022-08-19T12:51:07;30.30;32.80
64888;DHT22;51386;53.082;8.816;2022-08-19T12:53:35;30.30;32.50
64888;DHT22;51386;53.082;8.816;2022-08-19T12:56:06;30.30;32.30
64888;DHT22;51386;53.082;8.816;2022-08-19T12:58:39;30.40;32.30
64888;DHT22;51386;53.082;8.816;2022-08-19T13:01:17;30.40;31.60
64888;DHT22;51386;53.082;8.816;2022-08-19T13:03:49;30.50;31.80
64888;DHT22;51386;53.082;8.816;2022-08-19T13:06:20;30.60;31.20
64888;DHT22;51386;53.082;8.816;2022-08-19T13:08:48;30.70;32.10
64888;DHT22;51386;53.082;8.816;2022-08-19T13:11:17;30.80;31.80
64888;DHT22;51386;53.082;8.816;2022-08-19T13:13:48;30.80;30.40
64888;DHT22;51386;53.082;8.816;2022-08-19T13:16:18;30.80;29.80
64888;DHT22;51386;53.082;8.816;2022-08-19T13:18:47;30.90;29.40
64888;DHT22;51386;53.082;8.816;2022-08-19T13:21:15;30.90;28.90
64888;DHT22;51386;53.082;8.816;2022-08-19T13:23:44;31.00;27.70
64888;DHT22;51386;53.082;8.816;2022-08-19T13:26:12;31.10;26.30
64888;DHT22;51386;53.082;8.816;2022-08-19T13:28:41;31.20;26.80
64888;DHT22;51386;53.082;8.816;2022-08-19T13:31:30;31.30;26.80
64888;DHT22;51386;53.082;8.816;2022-08-19T13:34:19;31.40;27.30
64888;DHT22;51386;53.082;8.816;2022-08-19T13:36:57;31.50;27.50
64888;DHT22;51386;53.082;8.816;2022-08-19T13:39:26;31.50;27.30
64888;DHT22;51386;53.082;8.816;2022-08-19T13:41:54;31.50;27.40
64888;DHT22;51386;53.082;8.816;2022-08-19T13:44:21;31.50;27.60
64888;DHT22;51386;53.082;8.816;2022-08-19T13:46:49;31.50;27.70
64888;DHT22;51386;53.082;8.816;2022-08-19T13:49:20;31.40;27.90
64888;DHT22;51386;53.082;8.816;2022-08-19T13:51:47;31.40;28.50
64888;DHT22;51386;53.082;8.816;2022-08-19T13:54:15;31.50;28.80
64888;DHT22;51386;53.082;8.816;2022-08-19T13:56:45;31.50;29.40
64888;DHT22;51386;53.082;8.816;2022-08-19T13:59:13;31.40;29.00
64888;DHT22;51386;53.082;8.816;2022-08-19T14:01:40;31.40;29.10
64888;DHT22;51386;53.082;8.816;2022-08-19T14:04:09;31.50;29.10
64888;DHT22;51386;53.082;8.816;2022-08-19T14:06:36;31.60;29.10
64888;DHT22;51386;53.082;8.816;2022-08-19T14:09:04;31.70;29.70
64888;DHT22;51386;53.082;8.816;2022-08-19T14:11:32;31.80;28.40
64888;DHT22;51386;53.082;8.816;2022-08-19T14:14:01;31.80;28.20
64888;DHT22;51386;53.082;8.816;2022-08-19T14:16:28;31.90;28.70
64888;DHT22;51386;53.082;8.816;2022-08-19T14:18:57;32.10;29.10
64888;DHT22;51386;53.082;8.816;2022-08-19T14:21:25;32.10;29.20
64888;DHT22;51386;53.082;8.816;2022-08-19T14:23:53;32.20;29.30
64888;DHT22;51386;53.082;8.816;2022-08-19T14:26:21;32.30;29.30
64888;DHT22;51386;53.082;8.816;2022-08-19T14:28:50;32.20;29.40
64888;DHT22;51386;53.082;8.816;2022-08-19T14:31:20;32.10;29.70
64888;DHT22;51386;53.082;8.816;2022-08-19T14:33:56;32.10;30.00
64888;DHT22;51386;53.082;8.816;2022-08-19T14:36:23;32.10;30.10
64888;DHT22;51386;53.082;8.816;2022-08-19T14:38:51;32.00;30.30
64888;DHT22;51386;53.082;8.816;2022-08-19T14:41:21;32.00;30.70
64888;DHT22;51386;53.082;8.816;2022-08-19T14:43:52;31.90;30.80
64888;DHT22;51386;53.082;8.816;2022-08-19T14:46:23;31.80;31.20
64888;DHT22;51386;53.082;8.816;2022-08-19T14:48:56;31.70;31.30
64888;DHT22;51386;53.082;8.816;2022-08-19T14:51:26;31.60;31.80
64888;DHT22;51386;53.082;8.816;2022-08-19T14:53:54;31.50;31.80
64888;DHT22;51386;53.082;8.816;2022-08-19T14:56:24;31.50;32.10
64888;DHT22;51386;53.082;8.816;2022-08-19T14:58:53;31.50;32.30
64888;DHT22;51386;53.082;8.816;2022-08-19T15:01:22;31.60;32.40
64888;DHT22;51386;53.082;8.816;2022-08-19T15:03:50;31.60;32.30
64888;DHT22;51386;53.082;8.816;2022-08-19T15:06:21;31.60;32.30
64888;DHT22;51386;53.082;8.816;2022-08-19T15:08:50;31.60;32.40
64888;DHT22;51386;53.082;8.816;2022-08-19T15:11:19;31.60;32.60
64888;DHT22;51386;53.082;8.816;2022-08-19T15:13:49;31.50;32.60
64888;DHT22;51386;53.082;8.816;2022-08-19T15:16:18;31.50;32.60
64888;DHT22;51386;53.082;8.816;2022-08-19T15:18:50;31.50;32.60
64888;DHT22;51386;53.082;8.816;2022-08-19T15:21:22;31.40;32.70
64888;DHT22;51386;53.082;8.816;2022-08-19T15:23:53;31.30;32.90
64888;DHT22;51386;53.082;8.816;2022-08-19T15:26:23;31.30;33.10
64888;DHT22;51386;53.082;8.816;2022-08-19T15:28:51;31.20;33.10
64888;DHT22;51386;53.082;8.816;2022-08-19T15:31:21;31.10;33.80
64888;DHT22;51386;53.082;8.816;2022-08-19T15:33:56;31.10;33.50
64888;DHT22;51386;53.082;8.816;2022-08-19T15:36:25;31.00;33.60
64888;DHT22;51386;53.082;8.816;2022-08-19T15:38:53;30.90;33.80
64888;DHT22;51386;53.082;8.816;2022-08-19T15:41:29;30.90;33.70
64888;DHT22;51386;53.082;8.816;2022-08-19T15:43:59;30.90;34.50
64888;DHT22;51386;53.082;8.816;2022-08-19T15:46:35;30.90;35.50
64888;DHT22;51386;53.082;8.816;2022-08-19T15:49:06;30.90;35.90
64888;DHT22;51386;53.082;8.816;2022-08-19T15:51:36;30.90;36.20
64888;DHT22;51386;53.082;8.816;2022-08-19T15:54:08;30.90;36.00
64888;DHT22;51386;53.082;8.816;2022-08-19T15:56:37;31.00;36.20